sensor_id;sensor_type;location;lat;lon;timestamp;temperature;humidity
71039;SHT30;58692;43.212;27.908;2023-04-24T00:00:32;11.78;76.40
71039;SHT30;58692;43.212;27.908;2023-04-24T00:02:58;11.74;76.08
71039;SHT30;58692;43.212;27.908;2023-04-24T00:05:24;11.71;75.62
71039;SHT30;58692;43.212;27.908;2023-04-24T00:07:50;11.62;75.49
71039;SHT30;58692;43.212;27.908;2023-04-24T00:10:19;11.61;73.86
71039;SHT30;58692;43.212;27.908;2023-04-24T00:12:44;11.65;73.02
71039;SHT30;58692;43.212;27.908;2023-04-24T00:15:10;11.64;72.74
71039;SHT30;58692;43.212;27.908;2023-04-24T00:17:37;11.65;72.30
71039;SHT30;58692;43.212;27.908;2023-04-24T00:20:03;11.68;71.91
71039;SHT30;58692;43.212;27.908;2023-04-24T00:22:30;11.74;71.98
71039;SHT30;58692;43.212;27.908;2023-04-24T00:24:56;11.69;72.76
71039;SHT30;58692;43.212;27.908;2023-04-24T00:27:22;11.65;72.60
71039;SHT30;58692;43.212;27.908;2023-04-24T00:29:48;11.65;72.56
71039;SHT30;58692;43.212;27.908;2023-04-24T00:32:14;11.57;73.35
71039;SHT30;58692;43.212;27.908;2023-04-24T00:34:40;11.61;74.15
71039;SHT30;58692;43.212;27.908;2023-04-24T00:37:05;11.57;75.00
71039;SHT30;58692;43.212;27.908;2023-04-24T00:39:31;11.57;74.53
71039;SHT30;58692;43.212;27.908;2023-04-24T00:41:57;11.38;75.72
71039;SHT30;58692;43.212;27.908;2023-04-24T00:44:23;11.31;76.46
71039;SHT30;58692;43.212;27.908;2023-04-24T00:46:49;11.30;76.79
71039;SHT30;58692;43.212;27.908;2023-04-24T00:49:20;11.27;76.87
71039;SHT30;58692;43.212;27.908;2023-04-24T00:51:45;11.26;76.92
71039;SHT30;58692;43.212;27.908;2023-04-24T00:54:13;11.23;76.84
71039;SHT30;58692;43.212;27.908;2023-04-24T00:56:39;11.26;76.81
71039;SHT30;58692;43.212;27.908;2023-04-24T00:59:06;11.20;76.88
71039;SHT30;58692;43.212;27.908;2023-04-24T01:01:31;11.20;76.83
71039;SHT30;58692;43.212;27.908;2023-04-24T01:03:58;11.14;76.99
71039;SHT30;58692;43.212;27.908;2023-04-24T01:06:28;11.10;77.22
71039;SHT30;58692;43.212;27.908;2023-04-24T01:08:54;11.10;77.19
71039;SHT30;58692;43.212;27.908;2023-04-24T01:11:21;11.08;77.25
71039;SHT30;58692;43.212;27.908;2023-04-24T01:13:47;11.03;77.48
71039;SHT30;58692;43.212;27.908;2023-04-24T01:16:14;10.79;78.17
71039;SHT30;58692;43.212;27.908;2023-04-24T01:18:40;10.86;78.08
71039;SHT30;58692;43.212;27.908;2023-04-24T01:21:08;10.90;77.83
71039;SHT30;58692;43.212;27.908;2023-04-24T01:23:34;10.87;77.68
71039;SHT30;58692;43.212;27.908;2023-04-24T01:26:00;10.90;77.45
71039;SHT30;58692;43.212;27.908;2023-04-24T01:28:26;10.90;77.45
71039;SHT30;58692;43.212;27.908;2023-04-24T01:30:52;10.93;77.39
71039;SHT30;58692;43.212;27.908;2023-04-24T01:33:20;10.89;77.47
71039;SHT30;58692;43.212;27.908;2023-04-24T01:35:47;10.86;77.57
71039;SHT30;58692;43.212;27.908;2023-04-24T01:38:13;10.81;77.68
71039;SHT30;58692;43.212;27.908;2023-04-24T01:40:38;10.66;78.04
71039;SHT30;58692;43.212;27.908;2023-04-24T01:43:04;10.70;77.92
71039;SHT30;58692;43.212;27.908;2023-04-24T01:45:30;10.46;78.83
71039;SHT30;58692;43.212;27.908;2023-04-24T01:47:56;10.48;78.82
71039;SHT30;58692;43.212;27.908;2023-04-24T01:50:21;10.46;79.04
71039;SHT30;58692;43.212;27.908;2023-04-24T01:52:47;10.48;79.01
71039;SHT30;58692;43.212;27.908;2023-04-24T01:55:12;10.43;79.05
71039;SHT30;58692;43.212;27.908;2023-04-24T01:57:38;10.28;79.45
71039;SHT30;58692;43.212;27.908;2023-04-24T02:00:04;10.36;79.32
71039;SHT30;58692;43.212;27.908;2023-04-24T02:02:30;10.39;79.25
71039;SHT30;58692;43.212;27.908;2023-04-24T02:04:56;10.39;79.20
71039;SHT30;58692;43.212;27.908;2023-04-24T02:07:22;10.43;79.09
71039;SHT30;58692;43.212;27.908;2023-04-24T02:09:48;10.45;78.97
71039;SHT30;58692;43.212;27.908;2023-04-24T02:12:14;10.45;78.94
71039;SHT30;58692;43.212;27.908;2023-04-24T02:14:40;10.46;79.02
71039;SHT30;58692;43.212;27.908;2023-04-24T02:17:05;10.45;78.96
71039;SHT30;58692;43.212;27.908;2023-04-24T02:19:31;10.42;78.86
71039;SHT30;58692;43.212;27.908;2023-04-24T02:21:57;10.45;78.84
71039;SHT30;58692;43.212;27.908;2023-04-24T02:24:23;10.43;78.80
71039;SHT30;58692;43.212;27.908;2023-04-24T02:26:48;10.46;78.57
71039;SHT30;58692;43.212;27.908;2023-04-24T02:29:14;10.48;78.70
71039;SHT30;58692;43.212;27.908;2023-04-24T02:31:40;10.45;78.86
71039;SHT30;58692;43.212;27.908;2023-04-24T02:34:05;10.48;78.59
71039;SHT30;58692;43.212;27.908;2023-04-24T02:36:31;10.53;77.68
71039;SHT30;58692;43.212;27.908;2023-04-24T02:38:57;10.53;77.02
71039;SHT30;58692;43.212;27.908;2023-04-24T02:41:22;10.52;76.18
71039;SHT30;58692;43.212;27.908;2023-04-24T02:43:48;10.55;76.10
71039;SHT30;58692;43.212;27.908;2023-04-24T02:46:13;10.56;76.01
71039;SHT30;58692;43.212;27.908;2023-04-24T02:48:39;10.59;75.90
71039;SHT30;58692;43.212;27.908;2023-04-24T02:51:04;10.57;75.96
71039;SHT30;58692;43.212;27.908;2023-04-24T02:53:30;10.56;75.93
71039;SHT30;58692;43.212;27.908;2023-04-24T02:55:56;10.57;75.81
71039;SHT30;58692;43.212;27.908;2023-04-24T02:58:22;10.56;75.81
71039;SHT30;58692;43.212;27.908;2023-04-24T03:00:47;10.56;75.81
71039;SHT30;58692;43.212;27.908;2023-04-24T03:03:13;10.55;75.90
71039;SHT30;58692;43.212;27.908;2023-04-24T03:05:39;10.56;75.81
71039;SHT30;58692;43.212;27.908;2023-04-24T03:08:04;10.57;75.65
71039;SHT30;58692;43.212;27.908;2023-04-24T03:10:30;10.57;75.63
71039;SHT30;58692;43.212;27.908;2023-04-24T03:12:55;10.57;75.72
71039;SHT30;58692;43.212;27.908;2023-04-24T03:15:21;10.62;75.77
71039;SHT30;58692;43.212;27.908;2023-04-24T03:17:47;10.60;75.64
71039;SHT30;58692;43.212;27.908;2023-04-24T03:20:13;10.62;75.59
71039;SHT30;58692;43.212;27.908;2023-04-24T03:22:38;10.65;75.53
71039;SHT30;58692;43.212;27.908;2023-04-24T03:25:04;10.65;75.50
71039;SHT30;58692;43.212;27.908;2023-04-24T03:27:30;10.67;75.37
71039;SHT30;58692;43.212;27.908;2023-04-24T03:29:56;10.67;75.34
71039;SHT30;58692;43.212;27.908;2023-04-24T03:32:22;10.70;75.34
71039;SHT30;58692;43.212;27.908;2023-04-24T03:34:48;10.77;75.64
71039;SHT30;58692;43.212;27.908;2023-04-24T03:37:14;10.80;75.44
71039;SHT30;58692;43.212;27.908;2023-04-24T03:39:40;10.86;75.28
71039;SHT30;58692;43.212;27.908;2023-04-24T03:42:06;10.83;76.56
71039;SHT30;58692;43.212;27.908;2023-04-24T03:44:31;10.89;77.09
71039;SHT30;58692;43.212;27.908;2023-04-24T03:46:57;11.00;76.81
71039;SHT30;58692;43.212;27.908;2023-04-24T03:49:23;11.06;76.98
71039;SHT30;58692;43.212;27.908;2023-04-24T03:51:48;11.14;77.63
71039;SHT30;58692;43.212;27.908;2023-04-24T03:54:14;11.11;76.60
71039;SHT30;58692;43.212;27.908;2023-04-24T03:56:39;11.38;76.37
71039;SHT30;58692;43.212;27.908;2023-04-24T03:59:05;11.64;76.44
71039;SHT30;58692;43.212;27.908;2023-04-24T04:01:30;11.85;76.63
71039;SHT30;58692;43.212;27.908;2023-04-24T04:03:56;12.10;76.42
71039;SHT30;58692;43.212;27.908;2023-04-24T04:06:21;12.34;75.97
71039;SHT30;58692;43.212;27.908;2023-04-24T04:08:47;12.59;75.02
71039;SHT30;58692;43.212;27.908;2023-04-24T04:11:13;12.83;73.78
71039;SHT30;58692;43.212;27.908;2023-04-24T04:13:38;13.10;73.41
71039;SHT30;58692;43.212;27.908;2023-04-24T04:16:05;13.36;73.13
71039;SHT30;58692;43.212;27.908;2023-04-24T04:18:32;13.45;73.88
71039;SHT30;58692;43.212;27.908;2023-04-24T04:20:58;13.72;73.51
71039;SHT30;58692;43.212;27.908;2023-04-24T04:23:27;13.99;73.09
71039;SHT30;58692;43.212;27.908;2023-04-24T04:26:14;14.61;71.65
71039;SHT30;58692;43.212;27.908;2023-04-24T04:29:01;15.11;69.33
71039;SHT30;58692;43.212;27.908;2023-04-24T04:31:28;15.43;68.39
71039;SHT30;58692;43.212;27.908;2023-04-24T04:33:54;15.70;68.32
71039;SHT30;58692;43.212;27.908;2023-04-24T04:36:20;15.43;69.16
71039;SHT30;58692;43.212;27.908;2023-04-24T04:38:45;15.05;71.09
71039;SHT30;58692;43.212;27.908;2023-04-24T04:41:11;15.08;71.10
71039;SHT30;58692;43.212;27.908;2023-04-24T04:43:37;15.31;70.59
71039;SHT30;58692;43.212;27.908;2023-04-24T04:46:04;15.63;69.95
71039;SHT30;58692;43.212;27.908;2023-04-24T04:48:30;14.87;71.90
71039;SHT30;58692;43.212;27.908;2023-04-24T04:50:59;14.74;72.41
71039;SHT30;58692;43.212;27.908;2023-04-24T04:53:24;14.99;71.79
71039;SHT30;58692;43.212;27.908;2023-04-24T04:55:51;14.98;71.99
71039;SHT30;58692;43.212;27.908;2023-04-24T04:58:16;14.95;72.04
71039;SHT30;58692;43.212;27.908;2023-04-24T05:00:42;15.09;71.78
71039;SHT30;58692;43.212;27.908;2023-04-24T05:03:10;14.87;72.55
71039;SHT30;58692;43.212;27.908;2023-04-24T05:05:36;15.19;72.04
71039;SHT30;58692;43.212;27.908;2023-04-24T05:08:07;15.38;70.98
71039;SHT30;58692;43.212;27.908;2023-04-24T05:10:33;15.44;70.86
71039;SHT30;58692;43.212;27.908;2023-04-24T05:13:00;15.83;69.64
71039;SHT30;58692;43.212;27.908;2023-04-24T05:15:26;15.74;69.91
71039;SHT30;58692;43.212;27.908;2023-04-24T05:17:51;15.46;71.01
71039;SHT30;58692;43.212;27.908;2023-04-24T05:20:17;15.84;68.98
71039;SHT30;58692;43.212;27.908;2023-04-24T05:22:42;15.59;69.81
71039;SHT30;58692;43.212;27.908;2023-04-24T05:25:10;16.47;68.04
71039;SHT30;58692;43.212;27.908;2023-04-24T05:27:38;16.51;65.98
71039;SHT30;58692;43.212;27.908;2023-04-24T05:30:08;15.94;69.21
71039;SHT30;58692;43.212;27.908;2023-04-24T05:32:43;15.94;69.37
71039;SHT30;58692;43.212;27.908;2023-04-24T05:35:11;15.86;68.79
71039;SHT30;58692;43.212;27.908;2023-04-24T05:37:37;16.11;67.77
71039;SHT30;58692;43.212;27.908;2023-04-24T05:40:07;15.79;69.19
71039;SHT30;58692;43.212;27.908;2023-04-24T05:42:32;15.94;68.10
71039;SHT30;58692;43.212;27.908;2023-04-24T05:45:01;15.79;68.58
71039;SHT30;58692;43.212;27.908;2023-04-24T05:47:29;16.42;67.43
71039;SHT30;58692;43.212;27.908;2023-04-24T05:49:55;16.08;67.75
71039;SHT30;58692;43.212;27.908;2023-04-24T05:52:21;15.82;68.77
71039;SHT30;58692;43.212;27.908;2023-04-24T05:54:46;16.29;67.82
71039;SHT30;58692;43.212;27.908;2023-04-24T05:57:12;15.96;68.78
71039;SHT30;58692;43.212;27.908;2023-04-24T05:59:37;15.96;68.55
71039;SHT30;58692;43.212;27.908;2023-04-24T06:02:09;16.71;66.87
71039;SHT30;58692;43.212;27.908;2023-04-24T06:04:35;16.37;67.59
71039;SHT30;58692;43.212;27.908;2023-04-24T06:07:19;16.03;67.70
71039;SHT30;58692;43.212;27.908;2023-04-24T06:09:45;15.63;69.47
71039;SHT30;58692;43.212;27.908;2023-04-24T06:12:11;16.01;68.82
71039;SHT30;58692;43.212;27.908;2023-04-24T06:14:36;16.34;67.38
71039;SHT30;58692;43.212;27.908;2023-04-24T06:17:02;16.52;66.14
71039;SHT30;58692;43.212;27.908;2023-04-24T06:19:48;16.49;66.92
71039;SHT30;58692;43.212;27.908;2023-04-24T06:22:16;16.59;65.63
71039;SHT30;58692;43.212;27.908;2023-04-24T06:24:52;16.29;66.80
71039;SHT30;58692;43.212;27.908;2023-04-24T06:27:18;16.38;65.93
71039;SHT30;58692;43.212;27.908;2023-04-24T06:29:47;16.21;66.70
71039;SHT30;58692;43.212;27.908;2023-04-24T06:32:21;16.85;65.23
71039;SHT30;58692;43.212;27.908;2023-04-24T06:34:47;16.37;66.01
71039;SHT30;58692;43.212;27.908;2023-04-24T06:37:19;16.35;67.26
71039;SHT30;58692;43.212;27.908;2023-04-24T06:39:46;16.69;66.21
71039;SHT30;58692;43.212;27.908;2023-04-24T06:42:12;16.48;66.84
71039;SHT30;58692;43.212;27.908;2023-04-24T06:44:38;16.10;68.19
71039;SHT30;58692;43.212;27.908;2023-04-24T06:47:07;16.24;67.83
71039;SHT30;58692;43.212;27.908;2023-04-24T06:49:35;16.45;67.47
71039;SHT30;58692;43.212;27.908;2023-04-24T06:52:00;16.83;66.54
71039;SHT30;58692;43.212;27.908;2023-04-24T06:54:26;16.90;66.77
71039;SHT30;58692;43.212;27.908;2023-04-24T06:56:52;17.05;66.23
71039;SHT30;58692;43.212;27.908;2023-04-24T06:59:18;16.82;66.63
71039;SHT30;58692;43.212;27.908;2023-04-24T07:04:53;16.35;68.71
71039;SHT30;58692;43.212;27.908;2023-04-24T07:07:18;17.16;66.86
71039;SHT30;58692;43.212;27.908;2023-04-24T07:09:44;17.22;66.20
71039;SHT30;58692;43.212;27.908;2023-04-24T07:12:11;16.64;68.10
71039;SHT30;58692;43.212;27.908;2023-04-24T07:14:40;16.80;66.77
71039;SHT30;58692;43.212;27.908;2023-04-24T07:17:06;17.64;65.91
71039;SHT30;58692;43.212;27.908;2023-04-24T07:19:36;17.20;66.42
71039;SHT30;58692;43.212;27.908;2023-04-24T07:22:02;17.23;67.15
71039;SHT30;58692;43.212;27.908;2023-04-24T07:24:28;16.99;68.20
71039;SHT30;58692;43.212;27.908;2023-04-24T07:26:54;17.00;67.52
71039;SHT30;58692;43.212;27.908;2023-04-24T07:29:20;17.12;67.94
71039;SHT30;58692;43.212;27.908;2023-04-24T07:31:49;17.31;67.30
71039;SHT30;58692;43.212;27.908;2023-04-24T07:34:15;17.23;67.42
71039;SHT30;58692;43.212;27.908;2023-04-24T07:36:41;16.93;68.61
71039;SHT30;58692;43.212;27.908;2023-04-24T07:39:06;16.42;70.44
71039;SHT30;58692;43.212;27.908;2023-04-24T07:41:33;16.55;69.39
71039;SHT30;58692;43.212;27.908;2023-04-24T07:44:02;16.31;70.41
71039;SHT30;58692;43.212;27.908;2023-04-24T07:46:30;16.44;70.01
71039;SHT30;58692;43.212;27.908;2023-04-24T07:49:00;17.10;67.75
71039;SHT30;58692;43.212;27.908;2023-04-24T07:51:26;16.68;69.24
71039;SHT30;58692;43.212;27.908;2023-04-24T07:53:53;16.99;68.11
71039;SHT30;58692;43.212;27.908;2023-04-24T07:56:20;17.20;66.85
71039;SHT30;58692;43.212;27.908;2023-04-24T07:58:52;17.51;66.52
71039;SHT30;58692;43.212;27.908;2023-04-24T08:01:18;17.16;67.12
71039;SHT30;58692;43.212;27.908;2023-04-24T08:03:43;17.06;67.80
71039;SHT30;58692;43.212;27.908;2023-04-24T08:06:09;17.51;65.82
71039;SHT30;58692;43.212;27.908;2023-04-24T08:08:35;17.23;65.53
71039;SHT30;58692;43.212;27.908;2023-04-24T08:11:00;16.79;67.09
71039;SHT30;58692;43.212;27.908;2023-04-24T08:13:29;16.69;67.69
71039;SHT30;58692;43.212;27.908;2023-04-24T08:15:56;16.92;67.62
71039;SHT30;58692;43.212;27.908;2023-04-24T08:18:22;17.30;67.07
71039;SHT30;58692;43.212;27.908;2023-04-24T08:20:48;18.26;64.24
71039;SHT30;58692;43.212;27.908;2023-04-24T08:23:13;18.01;65.13
71039;SHT30;58692;43.212;27.908;2023-04-24T08:25:40;18.46;63.62
71039;SHT30;58692;43.212;27.908;2023-04-24T08:28:09;18.49;63.83
71039;SHT30;58692;43.212;27.908;2023-04-24T08:30:35;17.92;65.05
71039;SHT30;58692;43.212;27.908;2023-04-24T08:33:00;18.25;64.60
71039;SHT30;58692;43.212;27.908;2023-04-24T08:35:26;18.42;63.50
71039;SHT30;58692;43.212;27.908;2023-04-24T08:37:52;18.36;63.45
71039;SHT30;58692;43.212;27.908;2023-04-24T08:40:23;18.22;64.22
71039;SHT30;58692;43.212;27.908;2023-04-24T08:42:54;17.74;65.25
71039;SHT30;58692;43.212;27.908;2023-04-24T08:45:20;17.63;66.31
71039;SHT30;58692;43.212;27.908;2023-04-24T08:47:52;18.08;64.67
71039;SHT30;58692;43.212;27.908;2023-04-24T08:50:19;17.84;64.62
71039;SHT30;58692;43.212;27.908;2023-04-24T08:52:49;17.94;63.98
71039;SHT30;58692;43.212;27.908;2023-04-24T08:55:15;18.02;64.32
71039;SHT30;58692;43.212;27.908;2023-04-24T08:57:45;17.67;65.17
71039;SHT30;58692;43.212;27.908;2023-04-24T09:00:14;17.46;66.27
71039;SHT30;58692;43.212;27.908;2023-04-24T09:02:42;17.46;66.53
71039;SHT30;58692;43.212;27.908;2023-04-24T09:05:10;18.05;65.48
71039;SHT30;58692;43.212;27.908;2023-04-24T09:07:39;17.82;66.17
71039;SHT30;58692;43.212;27.908;2023-04-24T09:10:07;18.52;63.80
71039;SHT30;58692;43.212;27.908;2023-04-24T09:12:34;19.11;61.63
71039;SHT30;58692;43.212;27.908;2023-04-24T09:15:01;19.03;63.21
71039;SHT30;58692;43.212;27.908;2023-04-24T09:17:28;18.38;63.66
71039;SHT30;58692;43.212;27.908;2023-04-24T09:19:58;18.00;65.23
71039;SHT30;58692;43.212;27.908;2023-04-24T09:22:23;18.18;65.26
71039;SHT30;58692;43.212;27.908;2023-04-24T09:25:07;18.16;64.93
71039;SHT30;58692;43.212;27.908;2023-04-24T09:27:34;18.59;63.98
71039;SHT30;58692;43.212;27.908;2023-04-24T09:30:01;18.41;62.26
71039;SHT30;58692;43.212;27.908;2023-04-24T09:32:27;18.39;63.67
71039;SHT30;58692;43.212;27.908;2023-04-24T09:35:11;17.97;64.45
71039;SHT30;58692;43.212;27.908;2023-04-24T09:37:41;17.90;64.25
71039;SHT30;58692;43.212;27.908;2023-04-24T09:40:10;18.06;63.25
71039;SHT30;58692;43.212;27.908;2023-04-24T09:42:37;18.18;62.84
71039;SHT30;58692;43.212;27.908;2023-04-24T09:45:04;18.31;61.84
71039;SHT30;58692;43.212;27.908;2023-04-24T09:47:36;18.05;62.81
71039;SHT30;58692;43.212;27.908;2023-04-24T09:50:15;18.15;63.32
71039;SHT30;58692;43.212;27.908;2023-04-24T09:52:45;17.74;64.31
71039;SHT30;58692;43.212;27.908;2023-04-24T09:55:19;17.50;64.15
71039;SHT30;58692;43.212;27.908;2023-04-24T09:57:55;18.02;63.14
71039;SHT30;58692;43.212;27.908;2023-04-24T10:00:24;17.87;63.47
71039;SHT30;58692;43.212;27.908;2023-04-24T10:02:59;18.26;63.04
71039;SHT30;58692;43.212;27.908;2023-04-24T10:05:35;18.25;62.75
71039;SHT30;58692;43.212;27.908;2023-04-24T10:08:15;18.42;62.46
71039;SHT30;58692;43.212;27.908;2023-04-24T10:10:45;18.21;62.78
71039;SHT30;58692;43.212;27.908;2023-04-24T10:13:21;19.08;59.55
71039;SHT30;58692;43.212;27.908;2023-04-24T10:15:47;18.86;61.04
71039;SHT30;58692;43.212;27.908;2023-04-24T10:18:23;19.47;61.05
71039;SHT30;58692;43.212;27.908;2023-04-24T10:20:50;19.58;59.81
71039;SHT30;58692;43.212;27.908;2023-04-24T10:26:13;19.55;59.89
71039;SHT30;58692;43.212;27.908;2023-04-24T10:28:45;19.88;58.54
71039;SHT30;58692;43.212;27.908;2023-04-24T10:31:12;19.48;59.89
71039;SHT30;58692;43.212;27.908;2023-04-24T10:33:40;19.31;59.50
71039;SHT30;58692;43.212;27.908;2023-04-24T10:36:09;19.07;60.81
71039;SHT30;58692;43.212;27.908;2023-04-24T10:38:36;19.85;59.52
71039;SHT30;58692;43.212;27.908;2023-04-24T10:41:13;20.39;56.84
71039;SHT30;58692;43.212;27.908;2023-04-24T10:43:45;19.93;56.44
71039;SHT30;58692;43.212;27.908;2023-04-24T10:46:19;19.68;57.54
71039;SHT30;58692;43.212;27.908;2023-04-24T10:48:53;18.99;58.29
71039;SHT30;58692;43.212;27.908;2023-04-24T10:51:22;19.61;57.84
71039;SHT30;58692;43.212;27.908;2023-04-24T10:53:50;19.47;58.42
71039;SHT30;58692;43.212;27.908;2023-04-24T10:56:17;18.45;61.85
71039;SHT30;58692;43.212;27.908;2023-04-24T10:58:45;18.43;62.63
71039;SHT30;58692;43.212;27.908;2023-04-24T11:01:27;18.15;63.96
71039;SHT30;58692;43.212;27.908;2023-04-24T11:03:56;18.06;64.44
71039;SHT30;58692;43.212;27.908;2023-04-24T11:09:12;17.91;66.31
71039;SHT30;58692;43.212;27.908;2023-04-24T11:11:45;17.95;65.95
71039;SHT30;58692;43.212;27.908;2023-04-24T11:14:15;18.42;64.56
71039;SHT30;58692;43.212;27.908;2023-04-24T11:16:45;18.02;65.36
71039;SHT30;58692;43.212;27.908;2023-04-24T11:21:46;17.66;66.06
71039;SHT30;58692;43.212;27.908;2023-04-24T11:24:28;17.59;66.86
71039;SHT30;58692;43.212;27.908;2023-04-24T11:26:59;17.74;66.68
71039;SHT30;58692;43.212;27.908;2023-04-24T11:29:46;17.73;66.24
71039;SHT30;58692;43.212;27.908;2023-04-24T11:32:33;17.24;68.42
71039;SHT30;58692;43.212;27.908;2023-04-24T11:37:29;18.55;64.98
71039;SHT30;58692;43.212;27.908;2023-04-24T11:39:57;18.74;62.56
71039;SHT30;58692;43.212;27.908;2023-04-24T11:42:23;18.53;64.91
71039;SHT30;58692;43.212;27.908;2023-04-24T11:44:52;18.12;66.18
71039;SHT30;58692;43.212;27.908;2023-04-24T11:47:18;18.28;66.19
71039;SHT30;58692;43.212;27.908;2023-04-24T11:49:43;17.64;67.79
71039;SHT30;58692;43.212;27.908;2023-04-24T11:52:09;17.50;68.31
71039;SHT30;58692;43.212;27.908;2023-04-24T11:54:36;17.78;67.54
71039;SHT30;58692;43.212;27.908;2023-04-24T11:57:05;17.94;66.77
71039;SHT30;58692;43.212;27.908;2023-04-24T11:59:39;18.35;64.88
71039;SHT30;58692;43.212;27.908;2023-04-24T12:02:04;18.18;65.80
71039;SHT30;58692;43.212;27.908;2023-04-24T12:04:39;17.81;66.71
71039;SHT30;58692;43.212;27.908;2023-04-24T12:07:05;17.31;67.71
71039;SHT30;58692;43.212;27.908;2023-04-24T12:09:47;17.43;67.94
71039;SHT30;58692;43.212;27.908;2023-04-24T12:12:15;17.15;68.58
71039;SHT30;58692;43.212;27.908;2023-04-24T12:14:44;17.40;67.72
71039;SHT30;58692;43.212;27.908;2023-04-24T12:17:13;17.19;68.91
71039;SHT30;58692;43.212;27.908;2023-04-24T12:19:45;16.96;69.84
71039;SHT30;58692;43.212;27.908;2023-04-24T12:22:11;16.49;70.95
71039;SHT30;58692;43.212;27.908;2023-04-24T12:27:28;15.90;73.66
71039;SHT30;58692;43.212;27.908;2023-04-24T12:29:58;15.56;74.90
71039;SHT30;58692;43.212;27.908;2023-04-24T12:32:24;15.33;75.98
71039;SHT30;58692;43.212;27.908;2023-04-24T12:34:53;15.22;76.31
71039;SHT30;58692;43.212;27.908;2023-04-24T12:37:19;15.12;77.02
71039;SHT30;58692;43.212;27.908;2023-04-24T12:40:00;14.89;77.80
71039;SHT30;58692;43.212;27.908;2023-04-24T12:42:28;14.71;78.30
71039;SHT30;58692;43.212;27.908;2023-04-24T12:45:03;14.40;79.62
71039;SHT30;58692;43.212;27.908;2023-04-24T12:47:30;14.42;79.49
71039;SHT30;58692;43.212;27.908;2023-04-24T12:49:59;14.57;79.19
71039;SHT30;58692;43.212;27.908;2023-04-24T12:52:27;14.65;79.06
71039;SHT30;58692;43.212;27.908;2023-04-24T12:54:54;14.37;80.05
71039;SHT30;58692;43.212;27.908;2023-04-24T12:57:21;14.44;79.64
71039;SHT30;58692;43.212;27.908;2023-04-24T12:59:47;14.60;79.55
71039;SHT30;58692;43.212;27.908;2023-04-24T13:02:12;14.68;79.41
71039;SHT30;58692;43.212;27.908;2023-04-24T13:04:38;14.61;79.21
71039;SHT30;58692;43.212;27.908;2023-04-24T13:07:05;14.38;79.41
71039;SHT30;58692;43.212;27.908;2023-04-24T13:09:31;14.40;79.76
71039;SHT30;58692;43.212;27.908;2023-04-24T13:11:58;14.50;79.01
71039;SHT30;58692;43.212;27.908;2023-04-24T13:14:23;14.44;79.85
71039;SHT30;58692;43.212;27.908;2023-04-24T13:16:49;14.77;78.92
71039;SHT30;58692;43.212;27.908;2023-04-24T13:19:15;14.51;79.26
71039;SHT30;58692;43.212;27.908;2023-04-24T13:21:41;14.50;80.00
71039;SHT30;58692;43.212;27.908;2023-04-24T13:24:06;14.74;79.41
71039;SHT30;58692;43.212;27.908;2023-04-24T13:26:33;14.42;79.42
71039;SHT30;58692;43.212;27.908;2023-04-24T13:28:59;14.45;79.88
71039;SHT30;58692;43.212;27.908;2023-04-24T13:31:24;14.44;79.94
71039;SHT30;58692;43.212;27.908;2023-04-24T13:33:50;14.17;80.55
71039;SHT30;58692;43.212;27.908;2023-04-24T13:36:15;14.36;79.51
71039;SHT30;58692;43.212;27.908;2023-04-24T13:38:43;14.24;79.98
71039;SHT30;58692;43.212;27.908;2023-04-24T13:41:09;14.40;79.64
71039;SHT30;58692;43.212;27.908;2023-04-24T13:43:35;14.38;79.08
71039;SHT30;58692;43.212;27.908;2023-04-24T13:46:01;14.45;79.47
71039;SHT30;58692;43.212;27.908;2023-04-24T13:48:29;14.54;79.17
71039;SHT30;58692;43.212;27.908;2023-04-24T13:50:55;14.63;78.97
71039;SHT30;58692;43.212;27.908;2023-04-24T13:53:30;14.63;79.06
71039;SHT30;58692;43.212;27.908;2023-04-24T13:55:57;14.48;79.25
71039;SHT30;58692;43.212;27.908;2023-04-24T13:58:22;14.09;80.11
71039;SHT30;58692;43.212;27.908;2023-04-24T14:00:48;14.36;80.31
71039;SHT30;58692;43.212;27.908;2023-04-24T14:03:14;13.93;80.62
71039;SHT30;58692;43.212;27.908;2023-04-24T14:05:40;13.97;80.88
71039;SHT30;58692;43.212;27.908;2023-04-24T14:08:05;14.02;80.99
71039;SHT30;58692;43.212;27.908;2023-04-24T14:10:34;14.05;80.61
71039;SHT30;58692;43.212;27.908;2023-04-24T14:13:00;14.24;80.35
71039;SHT30;58692;43.212;27.908;2023-04-24T14:15:27;14.23;80.39
71039;SHT30;58692;43.212;27.908;2023-04-24T14:17:53;14.00;81.44
71039;SHT30;58692;43.212;27.908;2023-04-24T14:20:28;14.13;81.15
71039;SHT30;58692;43.212;27.908;2023-04-24T14:22:56;14.16;80.71
71039;SHT30;58692;43.212;27.908;2023-04-24T14:25:25;14.03;81.32
71039;SHT30;58692;43.212;27.908;2023-04-24T14:27:56;13.83;81.67
71039;SHT30;58692;43.212;27.908;2023-04-24T14:30:29;13.80;81.97
71039;SHT30;58692;43.212;27.908;2023-04-24T14:32:58;13.87;81.87
71039;SHT30;58692;43.212;27.908;2023-04-24T14:35:23;14.09;81.52
71039;SHT30;58692;43.212;27.908;2023-04-24T14:37:50;14.16;80.69
71039;SHT30;58692;43.212;27.908;2023-04-24T14:40:16;13.80;81.69
71039;SHT30;58692;43.212;27.908;2023-04-24T14:42:42;13.80;81.96
71039;SHT30;58692;43.212;27.908;2023-04-24T14:45:10;13.73;81.89
71039;SHT30;58692;43.212;27.908;2023-04-24T14:47:36;13.79;82.01
71039;SHT30;58692;43.212;27.908;2023-04-24T14:50:04;13.95;81.68
71039;SHT30;58692;43.212;27.908;2023-04-24T14:52:30;14.09;80.49
71039;SHT30;58692;43.212;27.908;2023-04-24T14:54:55;14.09;80.85
71039;SHT30;58692;43.212;27.908;2023-04-24T14:57:22;13.96;80.69
71039;SHT30;58692;43.212;27.908;2023-04-24T14:59:47;13.86;81.64
71039;SHT30;58692;43.212;27.908;2023-04-24T15:02:20;13.95;81.55
71039;SHT30;58692;43.212;27.908;2023-04-24T15:04:46;14.00;81.36
71039;SHT30;58692;43.212;27.908;2023-04-24T15:07:12;14.00;81.53
71039;SHT30;58692;43.212;27.908;2023-04-24T15:09:37;14.00;81.51
71039;SHT30;58692;43.212;27.908;2023-04-24T15:12:03;13.93;82.00
71039;SHT30;58692;43.212;27.908;2023-04-24T15:14:29;14.14;81.41
71039;SHT30;58692;43.212;27.908;2023-04-24T15:16:54;14.37;80.55
71039;SHT30;58692;43.212;27.908;2023-04-24T15:19:20;14.10;80.89
71039;SHT30;58692;43.212;27.908;2023-04-24T15:21:47;13.97;81.47
71039;SHT30;58692;43.212;27.908;2023-04-24T15:24:12;13.79;82.13
71039;SHT30;58692;43.212;27.908;2023-04-24T15:26:39;13.89;81.90
71039;SHT30;58692;43.212;27.908;2023-04-24T15:29:05;13.93;81.60
71039;SHT30;58692;43.212;27.908;2023-04-24T15:31:33;13.83;81.51
71039;SHT30;58692;43.212;27.908;2023-04-24T15:34:00;13.77;81.89